Terminal Aerodrome Forecast
Issued by NWS Charleston, SC

Home | Current Version | Previous Version | Text Only | Print | Product List | Glossary On
Versions: 1 2 3 4 5 6 7 8 9 10 11 12 13 14 15 16 17 18 19
000
FTUS42 KCHS 181900 AAA
TAFSAV
TAF AMD
KSAV 181901Z 1819/1918 06017G25KT 2SM +RA BR BKN008 OVC012
     FM190400 08012KT 4SM RA BR BKN006 OVC012
     FM191700 07015KT 5SM -SHRA BKN015=

USA.gov is the U.S. government's official web portal to all federal, state and local government web resources and services.